This is the latest recevied weather packets stored in our database for station/object K6CED. If no packets are shown the sender has not sent any weather packets the latest 1 day(s).
| Time | Temp. | Humidity | Pressure | Rain* | Wind** | Luminosity | Snow |
|---|---|---|---|---|---|---|---|
| 1778022608 | 16.11° C | 56% | 1016.1 hPa | 0 mm | - | 64 W/m² | - |
| 1778021698 | 16.67° C | 55% | 1016.1 hPa | 0 mm | - | 81 W/m² | - |
| 1778021394 | 16.67° C | 55% | 1016.2 hPa | 0 mm | - | 106 W/m² | - |
| 1778020788 | 16.67° C | 55% | 1016.1 hPa | 0 mm | - | 152 W/m² | - |
| 1778020485 | 16.67° C | 56% | 1016.2 hPa | 0 mm | - | 129 W/m² | - |
| 1778020181 | 16.67° C | 56% | 1016.4 hPa | 0 mm | - | 119 W/m² | - |
| 1778019271 | 16.67° C | 56% | 1016.4 hPa | 0 mm | - | 156 W/m² | - |
| 1778013820 | 18.33° C | 54% | 1016.6 hPa | 0 mm | - | 958 W/m² | - |
| 1778012910 | 17.22° C | 57% | 1016.6 hPa | 0 mm | - | 323 W/m² | - |
| 1778012303 | 17.22° C | 58% | 1017 hPa | 0 mm | - | 307 W/m² | - |
| 1778011395 | 17.22° C | 56% | 1017 hPa | 0 mm | - | 333 W/m² | - |
| 1778007151 | 15.56° C | 61% | 1017.2 hPa | 0 mm | - | 139 W/m² | - |
| 1778006847 | 16.11° C | 60% | 1017.3 hPa | 0 mm | - | 114 W/m² | - |
| 1778005939 | 16.11° C | 63% | 1017.3 hPa | 0 mm | - | 184 W/m² | - |
| 1778003815 | 16.67° C | 65% | 1017.4 hPa | 0 mm | - | 1059 W/m² | - |
| 1778001392 | 15.56° C | 68% | 1017.1 hPa | 0 mm | - | 633 W/m² | - |
| 1778000483 | 15° C | 74% | 1017 hPa | 0 mm | - | 313 W/m² | - |
| 1777999874 | 13.89° C | 77% | 1016.7 hPa | 0 mm | - | 267 W/m² | - |
| 1777999268 | 13.89° C | 76% | 1016.7 hPa | 0 mm | - | 191 W/m² | - |
| 1777998663 | 13.89° C | 78% | 1016.7 hPa | 0 mm | - | 270 W/m² | - |
| 1777998360 | 14.44° C | 79% | 1016.5 hPa | 0 mm | - | 226 W/m² | - |
| 1777997755 | 13.89° C | 77% | 1016.6 hPa | 0 mm | - | 380 W/m² | - |
| 1777997453 | 13.89° C | 78% | 1016.6 hPa | 0 mm | - | 289 W/m² | - |
| 1777997150 | 13.89° C | 78% | 1016.3 hPa | 0 mm | - | 269 W/m² | - |
| 1777996543 | 13.89° C | 82% | 1016.3 hPa | 0 mm | - | 260 W/m² | - |
* Rain latest hour (hover to see other rain measurements)
** Current wind speed in m/s (hover to see current wind gust speed)